createdAt,value
2022-09-23T00:01:05.434Z,84.43
2022-09-23T00:03:32.981Z,85.15
2022-09-23T00:06:01.522Z,85.16
2022-09-23T00:08:28.986Z,85.69
2022-09-23T00:10:56.501Z,85.47
2022-09-23T00:13:26.106Z,86.55
2022-09-23T00:15:52.969Z,86.76
2022-09-23T00:18:21.103Z,86.38
2022-09-23T00:20:48.079Z,86.84
2022-09-23T00:23:14.867Z,87.07
2022-09-23T00:25:41.468Z,86.80
2022-09-23T00:28:08.071Z,87.18
2022-09-23T00:30:34.705Z,86.98
2022-09-23T00:33:01.242Z,87.78
2022-09-23T00:35:27.851Z,87.97
2022-09-23T00:37:54.422Z,88.73
2022-09-23T00:40:21.227Z,88.95
2022-09-23T00:42:49.424Z,89.64
2022-09-23T00:45:16.989Z,88.72
2022-09-23T00:48:02.820Z,88.87
2022-09-23T00:50:42.990Z,89.07
2022-09-23T00:53:15.361Z,89.28
2022-09-23T00:55:49.209Z,93.65
2022-09-23T00:58:20.231Z,96.23
2022-09-23T01:00:47.154Z,96.85
2022-09-23T01:03:14.529Z,97.39
2022-09-23T01:05:42.193Z,96.80
2022-09-23T01:08:11.375Z,96.05
2022-09-23T01:11:06.192Z,96.53
2022-09-23T01:14:08.087Z,96.37
2022-09-23T01:16:54.576Z,96.74
2022-09-23T01:19:36.271Z,96.93
2022-09-23T01:22:27.770Z,96.87
2022-09-23T01:25:27.317Z,96.96
2022-09-23T01:28:12.680Z,96.01
2022-09-23T01:30:45.593Z,96.98
2022-09-23T01:33:37.595Z,95.95
2022-09-23T01:36:16.364Z,97.43
2022-09-23T01:39:08.007Z,99.11
2022-09-23T01:42:02.147Z,98.54
2022-09-23T01:44:47.682Z,98.20
2022-09-23T01:47:19.218Z,98.23
2022-09-23T01:50:03.808Z,97.97
2022-09-23T01:52:43.371Z,95.88
2022-09-23T01:55:25.780Z,95.02
2022-09-23T01:58:04.979Z,95.38
2022-09-23T02:00:37.359Z,94.43
2022-09-23T02:03:13.552Z,94.82
2022-09-23T02:05:43.889Z,94.91
2022-09-23T02:08:24.659Z,95.20
2022-09-23T02:11:11.669Z,94.51
2022-09-23T02:13:54.107Z,94.32
2022-09-23T02:16:26.616Z,95.87
2022-09-23T02:18:59.488Z,95.83
2022-09-23T02:21:38.336Z,96.08
2022-09-23T02:24:14.944Z,96.09
2022-09-23T02:26:53.476Z,97.54
2022-09-23T02:29:28.768Z,98.50
2022-09-23T02:32:04.449Z,98.77
2022-09-23T02:34:51.560Z,97.39
2022-09-23T02:37:25.704Z,97.43
2022-09-23T02:40:18.470Z,97.57
2022-09-23T02:43:03.481Z,97.22
2022-09-23T02:45:31.191Z,96.17
2022-09-23T02:48:04.177Z,97.35
2022-09-23T02:50:32.361Z,96.76
2022-09-23T02:53:00.816Z,96.88
2022-09-23T02:55:33.286Z,95.96
2022-09-23T02:58:01.741Z,96.79
2022-09-23T03:00:45.212Z,96.99
2022-09-23T03:03:39.746Z,97.50
2022-09-23T03:06:36.561Z,99.28
2022-09-23T03:09:26.547Z,97.48
2022-09-23T03:12:02.753Z,96.35
2022-09-23T03:14:41.133Z,95.56
2022-09-23T03:17:16.050Z,94.99
2022-09-23T03:20:02.798Z,95.94
2022-09-23T03:22:34.418Z,97.23
2022-09-23T03:25:09.276Z,98.30
2022-09-23T03:27:38.342Z,97.65
2022-09-23T03:30:07.192Z,97.18
2022-09-23T03:32:34.996Z,96.68
2022-09-23T03:35:04.083Z,96.64
2022-09-23T03:37:35.891Z,93.93
2022-09-23T03:40:24.116Z,94.31
2022-09-23T03:42:51.560Z,95.67
2022-09-23T03:45:23.883Z,95.40
2022-09-23T03:47:50.516Z,94.56
2022-09-23T03:50:21.339Z,93.97
2022-09-23T03:52:49.681Z,94.06
2022-09-23T03:55:18.107Z,94.44
2022-09-23T03:57:45.289Z,94.85
2022-09-23T04:00:13.783Z,95.05
2022-09-23T04:02:40.985Z,95.85
2022-09-23T04:05:09.499Z,97.07
2022-09-23T04:07:36.192Z,96.26
2022-09-23T04:10:03.028Z,96.02
2022-09-23T04:12:29.600Z,97.28
2022-09-23T04:14:56.184Z,97.06
2022-09-23T04:17:22.852Z,96.11
2022-09-23T04:19:49.436Z,96.64
2022-09-23T04:22:16.033Z,96.11
2022-09-23T04:24:42.687Z,95.41
2022-09-23T04:27:09.574Z,93.43
2022-09-23T04:29:36.190Z,93.14
2022-09-23T04:32:02.902Z,93.23
2022-09-23T04:34:29.476Z,94.02
2022-09-23T04:36:56.001Z,92.98
2022-09-23T04:39:22.639Z,92.58
2022-09-23T04:41:49.192Z,92.75
2022-09-23T04:44:16.200Z,92.77
2022-09-23T04:46:44.856Z,92.28
2022-09-23T04:49:13.044Z,92.37
2022-09-23T04:51:43.368Z,91.51
2022-09-23T04:54:11.857Z,91.82
2022-09-23T04:56:39.789Z,89.46
2022-09-23T04:59:07.094Z,89.10
2022-09-23T05:01:35.277Z,88.33
2022-09-23T05:04:05.487Z,89.56
2022-09-23T05:06:36.678Z,90.13
2022-09-23T05:09:06.939Z,90.24
2022-09-23T05:11:34.433Z,90.51
2022-09-23T05:14:01.125Z,90.29
2022-09-23T05:16:27.837Z,87.62
2022-09-23T05:18:55.174Z,87.37
2022-09-23T05:21:24.520Z,86.38
2022-09-23T05:23:56.560Z,85.89
2022-09-23T05:26:25.653Z,85.17
2022-09-23T05:28:54.036Z,83.75
2022-09-23T05:31:23.061Z,84.34
2022-09-23T05:33:52.593Z,84.01
2022-09-23T05:36:21.347Z,83.63
2022-09-23T05:38:50.084Z,82.75
2022-09-23T05:41:17.886Z,81.19
2022-09-23T05:43:44.714Z,80.90
2022-09-23T05:46:16.575Z,80.14
2022-09-23T05:48:45.940Z,80.92
2022-09-23T05:51:20.931Z,79.74
2022-09-23T05:53:48.684Z,78.20
2022-09-23T05:56:18.102Z,77.71
2022-09-23T05:58:45.455Z,76.62
2022-09-23T06:01:26.642Z,76.33
2022-09-23T06:03:55.040Z,77.81
2022-09-23T06:06:27.455Z,78.58
2022-09-23T06:08:54.171Z,81.86
2022-09-23T06:11:21.624Z,83.25
2022-09-23T06:13:49.410Z,81.18
2022-09-23T06:16:16.620Z,82.22
2022-09-23T06:18:45.198Z,79.96
2022-09-23T06:21:16.985Z,78.64
2022-09-23T06:23:44.820Z,77.25
2022-09-23T06:26:13.673Z,74.23
2022-09-23T06:28:41.607Z,72.72
2022-09-23T06:31:13.746Z,72.00
2022-09-23T06:33:42.209Z,70.84
2022-09-23T06:36:09.506Z,69.27
2022-09-23T06:38:39.664Z,68.13
2022-09-23T06:41:07.088Z,68.57
2022-09-23T06:43:33.977Z,66.70
2022-09-23T06:46:03.895Z,66.45
2022-09-23T06:48:34.266Z,66.00
2022-09-23T06:51:03.113Z,65.65
2022-09-23T06:53:33.207Z,67.00
2022-09-23T06:56:04.363Z,67.07
2022-09-23T06:58:32.804Z,65.01
2022-09-23T07:01:05.066Z,65.29
2022-09-23T07:03:34.930Z,62.97
2022-09-23T07:06:02.362Z,62.90
2022-09-23T07:08:30.378Z,61.87
2022-09-23T07:10:59.254Z,61.31
2022-09-23T07:13:26.839Z,60.93
2022-09-23T07:15:55.891Z,60.33
2022-09-23T07:18:25.971Z,58.86
2022-09-23T07:20:53.924Z,58.47
2022-09-23T07:23:21.270Z,56.96
2022-09-23T07:25:49.519Z,55.42
2022-09-23T07:28:16.437Z,55.12
2022-09-23T07:30:56.772Z,54.64
2022-09-23T07:33:32.158Z,53.41
2022-09-23T07:35:59.431Z,53.03
2022-09-23T07:38:30.200Z,52.36
2022-09-23T07:41:23.852Z,51.36
2022-09-23T07:43:52.725Z,51.38
2022-09-23T07:46:19.586Z,49.83
2022-09-23T07:48:46.477Z,49.14
2022-09-23T07:51:26.075Z,49.09
2022-09-23T07:53:54.129Z,48.71
2022-09-23T07:56:24.134Z,47.95
2022-09-23T07:59:00.320Z,48.46
2022-09-23T08:01:36.176Z,48.88
2022-09-23T08:04:06.702Z,48.04
2022-09-23T08:06:33.794Z,45.90
2022-09-23T08:09:01.133Z,45.23
2022-09-23T08:11:28.377Z,45.30
2022-09-23T08:13:55.079Z,43.65
2022-09-23T08:16:22.142Z,43.18
2022-09-23T08:18:49.172Z,42.42
2022-09-23T08:21:23.133Z,42.58
2022-09-23T08:23:49.947Z,42.59
2022-09-23T08:26:21.670Z,42.61
2022-09-23T08:28:48.740Z,42.53
2022-09-23T08:31:15.402Z,42.70
2022-09-23T08:33:42.124Z,42.64
2022-09-23T08:36:08.957Z,42.71
2022-09-23T08:38:35.847Z,42.26
2022-09-23T08:41:49.003Z,41.68
2022-09-23T08:44:34.495Z,41.86
2022-09-23T08:47:15.925Z,41.92
2022-09-23T08:49:55.687Z,41.37
2022-09-23T08:52:34.561Z,40.76
2022-09-23T08:55:03.135Z,39.53
2022-09-23T08:57:29.635Z,41.34
2022-09-23T08:59:56.947Z,41.15
2022-09-23T09:02:23.745Z,40.90
2022-09-23T09:05:05.320Z,40.09
2022-09-23T09:07:37.483Z,39.78
2022-09-23T09:10:13.666Z,39.20
2022-09-23T09:13:17.053Z,40.19
2022-09-23T09:16:06.966Z,39.49
2022-09-23T09:18:35.659Z,38.87
2022-09-23T09:21:26.540Z,38.34
2022-09-23T09:23:59.719Z,39.41
2022-09-23T09:26:33.505Z,42.12
2022-09-23T09:29:33.780Z,41.65
2022-09-23T09:31:57.766Z,43.40
2022-09-23T09:34:24.391Z,44.04
2022-09-23T09:37:27.513Z,43.99
2022-09-23T09:39:54.054Z,44.70
2022-09-23T09:42:26.138Z,45.22
2022-09-23T09:44:59.839Z,44.97
2022-09-23T09:47:46.817Z,44.04
2022-09-23T09:50:22.065Z,43.70
2022-09-23T09:52:49.100Z,43.68
2022-09-23T09:55:28.363Z,44.23
2022-09-23T09:57:54.861Z,43.55
2022-09-23T10:00:27.794Z,42.76
2022-09-23T10:02:59.409Z,42.20
2022-09-23T10:05:42.969Z,42.26
2022-09-23T10:08:18.596Z,42.97
2022-09-23T10:10:55.800Z,42.90
2022-09-23T10:13:26.459Z,42.91
2022-09-23T10:15:55.048Z,41.75
2022-09-23T10:18:34.545Z,41.64
2022-09-23T10:21:07.218Z,41.54
2022-09-23T10:23:40.555Z,42.68
2022-09-23T10:26:12.093Z,42.32
2022-09-23T10:28:38.753Z,43.59
2022-09-23T10:31:08.755Z,45.21
2022-09-23T10:33:41.854Z,46.26
2022-09-23T10:36:11.480Z,46.47
2022-09-23T10:38:38.329Z,46.01
2022-09-23T10:41:31.388Z,45.46
2022-09-23T10:44:40.254Z,44.01
2022-09-23T10:47:37.484Z,44.78
2022-09-23T10:50:24.359Z,42.82
2022-09-23T10:53:05.143Z,41.87
2022-09-23T10:55:54.339Z,41.41
2022-09-23T10:58:27.278Z,41.49
2022-09-23T11:01:16.311Z,40.68
2022-09-23T11:03:48.887Z,39.49
2022-09-23T11:06:25.981Z,39.55
2022-09-23T11:09:02.186Z,39.74
2022-09-23T11:11:47.579Z,39.16
2022-09-23T11:14:23.226Z,38.78
2022-09-23T11:17:14.766Z,39.31
2022-09-23T11:20:12.233Z,40.92
2022-09-23T11:23:05.661Z,46.28
2022-09-23T11:25:51.548Z,44.53
2022-09-23T11:28:29.491Z,44.68
2022-09-23T11:31:20.519Z,46.85
2022-09-23T11:33:53.064Z,44.48
2022-09-23T11:36:27.044Z,45.55
2022-09-23T11:38:57.067Z,47.71
2022-09-23T11:41:29.423Z,51.46
2022-09-23T11:44:04.367Z,53.99
2022-09-23T11:46:34.826Z,54.75
2022-09-23T11:49:07.396Z,59.60
2022-09-23T11:51:58.522Z,63.69
2022-09-23T11:54:34.961Z,64.91
2022-09-23T11:57:06.617Z,67.19
2022-09-23T11:59:40.497Z,68.32
2022-09-23T12:02:33.594Z,76.66
2022-09-23T12:05:23.090Z,74.11
2022-09-23T12:08:04.980Z,72.82
2022-09-23T12:11:06.947Z,64.59
2022-09-23T12:14:08.750Z,68.26
2022-09-23T12:16:41.169Z,60.97
2022-09-23T12:19:45.579Z,59.76
2022-09-23T12:22:14.854Z,58.87
2022-09-23T12:24:44.446Z,52.46
2022-09-23T12:27:29.360Z,53.74
2022-09-23T12:30:14.110Z,53.07
2022-09-23T12:32:42.395Z,52.38
2022-09-23T12:35:24.233Z,50.66
2022-09-23T12:37:51.934Z,51.08
2022-09-23T12:40:30.320Z,50.58
2022-09-23T12:43:01.151Z,47.90
2022-09-23T12:45:37.359Z,47.16
2022-09-23T12:48:28.002Z,46.95
2022-09-23T12:51:16.364Z,46.09
2022-09-23T12:53:52.760Z,45.17
2022-09-23T12:56:48.470Z,46.17
2022-09-23T12:59:18.081Z,45.29
2022-09-23T13:01:45.020Z,45.18
2022-09-23T13:05:01.337Z,42.85
2022-09-23T13:07:32.211Z,46.33
2022-09-23T13:10:09.069Z,44.14
2022-09-23T13:12:39.736Z,42.54
2022-09-23T13:15:17.173Z,41.74
2022-09-23T13:17:43.806Z,43.61
2022-09-23T13:20:19.668Z,46.85
2022-09-23T13:22:48.976Z,45.81
2022-09-23T13:25:24.141Z,44.88
2022-09-23T13:27:54.033Z,43.80
2022-09-23T13:30:26.508Z,46.53
2022-09-23T13:33:14.253Z,45.80
2022-09-23T13:35:46.361Z,43.66
2022-09-23T13:38:25.740Z,41.97
2022-09-23T13:41:19.402Z,41.41
2022-09-23T13:43:59.590Z,40.69
2022-09-23T13:46:29.861Z,42.12
2022-09-23T13:48:57.027Z,40.40
2022-09-23T13:51:36.572Z,39.33
2022-09-23T13:54:04.842Z,37.61
2022-09-23T13:56:35.362Z,35.79
2022-09-23T13:59:38.477Z,35.05
2022-09-23T14:02:19.908Z,31.90
2022-09-23T14:04:47.003Z,30.64
2022-09-23T14:07:16.466Z,30.77
2022-09-23T14:09:45.499Z,30.59
2022-09-23T14:12:13.126Z,32.81
2022-09-23T14:14:42.055Z,34.76
2022-09-23T14:17:10.332Z,36.47
2022-09-23T14:19:37.455Z,37.16
2022-09-23T14:22:04.125Z,37.77
2022-09-23T14:24:38.519Z,37.20
2022-09-23T14:27:08.091Z,38.92
2022-09-23T14:29:40.452Z,39.12
2022-09-23T14:32:19.107Z,39.32
2022-09-23T14:35:01.165Z,39.21
2022-09-23T14:37:51.113Z,39.98
2022-09-23T14:40:35.065Z,38.48
2022-09-23T14:43:07.290Z,39.94
2022-09-23T14:45:37.393Z,40.95
2022-09-23T14:48:10.312Z,41.79
2022-09-23T14:50:38.130Z,42.02
2022-09-23T14:53:23.912Z,42.00
2022-09-23T14:56:06.698Z,43.18
2022-09-23T14:58:58.718Z,42.94
2022-09-23T15:01:31.382Z,43.14
2022-09-23T15:04:36.514Z,43.56
2022-09-23T15:07:16.125Z,43.06
2022-09-23T15:09:44.816Z,41.50
2022-09-23T15:12:13.560Z,41.39
2022-09-23T15:14:52.754Z,40.95
2022-09-23T15:17:28.045Z,41.26
2022-09-23T15:19:58.375Z,42.28
2022-09-23T15:22:25.634Z,42.35
2022-09-23T15:24:53.961Z,42.83
2022-09-23T15:27:33.353Z,42.81
2022-09-23T15:30:15.983Z,43.27
2022-09-23T15:32:46.624Z,43.45
2022-09-23T15:35:19.852Z,43.38
2022-09-23T15:37:49.385Z,43.16
2022-09-23T15:40:28.201Z,44.44
2022-09-23T15:42:57.937Z,45.30
2022-09-23T15:45:35.282Z,46.09
2022-09-23T15:48:08.150Z,46.08
2022-09-23T15:50:36.870Z,46.78
2022-09-23T15:53:04.839Z,48.00
2022-09-23T15:55:32.020Z,49.20
2022-09-23T15:57:58.694Z,50.15
2022-09-23T16:00:25.579Z,50.93
2022-09-23T16:02:52.481Z,51.92
2022-09-23T16:05:34.879Z,52.38
2022-09-23T16:08:07.881Z,53.99
2022-09-23T16:10:36.410Z,54.26
2022-09-23T16:13:05.105Z,55.15
2022-09-23T16:15:32.573Z,56.00
2022-09-23T16:18:00.118Z,56.96
2022-09-23T16:20:29.878Z,57.20
2022-09-23T16:23:02.185Z,56.95
2022-09-23T16:25:31.699Z,57.23
2022-09-23T16:27:58.539Z,57.36
2022-09-23T16:30:31.154Z,58.27
2022-09-23T16:32:57.744Z,60.35
2022-09-23T16:35:27.133Z,62.03
2022-09-23T16:37:53.918Z,62.44
2022-09-23T16:40:22.518Z,62.57
2022-09-23T16:42:52.425Z,63.81
2022-09-23T16:45:22.387Z,64.62
2022-09-23T16:47:51.190Z,65.46
2022-09-23T16:50:20.640Z,66.41
2022-09-23T16:52:47.338Z,68.55
2022-09-23T16:55:14.937Z,69.49
2022-09-23T16:57:42.015Z,69.64
2022-09-23T17:00:31.983Z,71.11
2022-09-23T17:03:17.633Z,71.19
2022-09-23T17:05:46.759Z,71.36
2022-09-23T17:08:14.822Z,72.44
2022-09-23T17:10:43.095Z,72.93
2022-09-23T17:13:10.418Z,73.42
2022-09-23T17:15:38.490Z,73.47
2022-09-23T17:18:08.802Z,74.41
2022-09-23T17:20:36.340Z,74.05
2022-09-23T17:23:06.250Z,74.82
2022-09-23T17:25:34.109Z,73.74
2022-09-23T17:28:01.060Z,72.46
2022-09-23T17:30:28.836Z,72.01
2022-09-23T17:32:55.462Z,72.40
2022-09-23T17:35:22.016Z,72.43
2022-09-23T17:37:48.590Z,72.85
2022-09-23T17:40:15.277Z,72.97
2022-09-23T17:42:42.192Z,72.51
2022-09-23T17:45:12.480Z,72.28
2022-09-23T17:47:41.797Z,72.54
2022-09-23T17:50:08.695Z,72.31
2022-09-23T17:52:35.288Z,72.60
2022-09-23T17:55:01.931Z,72.89
2022-09-23T17:57:28.552Z,72.86
2022-09-23T17:59:56.143Z,72.00
2022-09-23T18:02:22.835Z,72.54
2022-09-23T18:04:49.780Z,71.48
2022-09-23T18:07:16.389Z,72.49
2022-09-23T18:09:42.976Z,72.97
2022-09-23T18:12:09.628Z,72.89
2022-09-23T18:14:36.297Z,73.24
2022-09-23T18:17:02.912Z,73.99
2022-09-23T18:19:29.453Z,73.93
2022-09-23T18:21:57.319Z,74.07
2022-09-23T18:24:33.110Z,75.91
2022-09-23T18:27:00.949Z,76.33
2022-09-23T18:29:27.669Z,77.13
2022-09-23T18:31:54.426Z,77.24
2022-09-23T18:34:23.637Z,77.27
2022-09-23T18:36:50.685Z,76.87
2022-09-23T18:39:17.578Z,76.85
2022-09-23T18:41:44.347Z,77.01
2022-09-23T18:44:11.277Z,79.18
2022-09-23T18:46:38.386Z,79.42
2022-09-23T18:49:23.682Z,78.78
2022-09-23T18:51:53.882Z,78.49
2022-09-23T18:54:21.613Z,79.49
2022-09-23T18:56:50.199Z,79.93
2022-09-23T18:59:20.751Z,79.84
2022-09-23T19:01:50.061Z,79.83
2022-09-23T19:04:19.612Z,78.52
2022-09-23T19:06:46.332Z,78.29
2022-09-23T19:09:15.152Z,79.05
2022-09-23T19:11:42.220Z,80.01
2022-09-23T19:14:11.497Z,78.82
2022-09-23T19:16:39.757Z,78.98
2022-09-23T19:19:06.724Z,79.63
2022-09-23T19:21:35.315Z,79.87
2022-09-23T19:24:05.567Z,79.65
2022-09-23T19:26:34.155Z,78.48
2022-09-23T19:29:02.850Z,78.15
2022-09-23T19:31:33.552Z,78.10
2022-09-23T19:34:00.431Z,78.43
2022-09-23T19:36:30.074Z,78.83
2022-09-23T19:38:59.141Z,79.93
2022-09-23T19:41:28.263Z,79.92
2022-09-23T19:43:55.542Z,80.94
2022-09-23T19:46:23.247Z,82.49
2022-09-23T19:48:51.869Z,82.10
2022-09-23T19:51:19.486Z,82.14
2022-09-23T19:53:46.826Z,82.13
2022-09-23T19:56:17.965Z,82.10
2022-09-23T19:58:51.114Z,82.52
2022-09-23T20:01:18.928Z,82.50
2022-09-23T20:03:47.171Z,82.36
2022-09-23T20:06:14.927Z,83.44
2022-09-23T20:08:42.166Z,83.32
2022-09-23T20:11:11.152Z,83.30
2022-09-23T20:13:42.579Z,84.41
2022-09-23T20:16:11.317Z,84.40
2022-09-23T20:18:39.056Z,82.88
2022-09-23T20:21:09.822Z,83.84
2022-09-23T20:23:36.718Z,84.63
2022-09-23T20:26:23.353Z,84.33
2022-09-23T20:28:50.387Z,83.10
2022-09-23T20:31:18.755Z,83.74
2022-09-23T20:33:46.550Z,83.64
2022-09-23T20:36:13.496Z,83.83
2022-09-23T20:38:40.568Z,85.26
2022-09-23T20:41:09.352Z,85.81
2022-09-23T20:43:36.444Z,86.26
2022-09-23T20:46:05.381Z,86.93
2022-09-23T20:48:32.138Z,87.28
2022-09-23T20:51:05.811Z,85.84
2022-09-23T20:53:32.952Z,86.12
2022-09-23T20:55:59.852Z,85.18
2022-09-23T20:58:29.245Z,84.87
2022-09-23T21:01:04.797Z,85.33
2022-09-23T21:03:32.906Z,85.09
2022-09-23T21:06:03.892Z,85.49
2022-09-23T21:08:31.375Z,85.82
2022-09-23T21:10:59.206Z,86.31
2022-09-23T21:13:25.836Z,85.77
2022-09-23T21:15:52.586Z,84.87
2022-09-23T21:18:22.366Z,85.63
2022-09-23T21:20:59.312Z,85.76
2022-09-23T21:23:38.224Z,87.02
2022-09-23T21:26:10.564Z,86.43
2022-09-23T21:28:40.047Z,86.58
2022-09-23T21:31:27.642Z,87.93
2022-09-23T21:34:01.020Z,88.36
2022-09-23T21:36:28.212Z,87.91
2022-09-23T21:38:59.012Z,89.53
2022-09-23T21:41:25.753Z,88.49
2022-09-23T21:43:52.361Z,88.91
2022-09-23T21:46:20.864Z,89.34
2022-09-23T21:48:51.917Z,90.55
2022-09-23T21:51:21.413Z,91.11
2022-09-23T21:53:48.011Z,91.46
2022-09-23T21:56:20.783Z,90.13
2022-09-23T21:58:48.804Z,89.45
2022-09-23T22:01:17.643Z,88.91
2022-09-23T22:03:52.498Z,89.52
2022-09-23T22:06:24.362Z,88.32
2022-09-23T22:08:54.366Z,87.69
2022-09-23T22:11:43.218Z,88.88
2022-09-23T22:14:12.487Z,89.60
2022-09-23T22:16:40.286Z,89.43
2022-09-23T22:19:07.603Z,89.43
2022-09-23T22:21:36.671Z,89.26
2022-09-23T22:24:05.095Z,87.99
2022-09-23T22:26:34.632Z,88.86
2022-09-23T22:29:19.868Z,89.85
2022-09-23T22:32:05.192Z,90.56
2022-09-23T22:34:49.053Z,89.47
2022-09-23T22:37:21.666Z,89.34
2022-09-23T22:39:48.319Z,87.84
2022-09-23T22:42:14.964Z,87.77
2022-09-23T22:44:41.561Z,88.21
2022-09-23T22:47:09.749Z,88.55
2022-09-23T22:49:36.868Z,89.14
2022-09-23T22:52:07.024Z,90.01
2022-09-23T22:54:34.548Z,90.38
2022-09-23T22:57:03.420Z,90.10
2022-09-23T22:59:30.064Z,89.70
2022-09-23T23:01:57.579Z,89.56
2022-09-23T23:04:24.262Z,90.35
2022-09-23T23:06:51.028Z,89.42
2022-09-23T23:09:18.842Z,89.13
2022-09-23T23:11:47.200Z,89.25
2022-09-23T23:14:16.519Z,89.27
2022-09-23T23:16:45.199Z,89.52
2022-09-23T23:19:14.088Z,90.28
2022-09-23T23:21:44.904Z,90.11
2022-09-23T23:24:20.916Z,90.02
2022-09-23T23:26:48.696Z,90.78
2022-09-23T23:29:18.223Z,91.48
2022-09-23T23:31:45.365Z,91.41
2022-09-23T23:34:14.467Z,91.02
2022-09-23T23:36:41.488Z,90.27
2022-09-23T23:39:08.570Z,89.46
2022-09-23T23:41:35.678Z,91.04
2022-09-23T23:44:02.824Z,90.27
2022-09-23T23:46:31.375Z,90.02
2022-09-23T23:48:59.025Z,91.73
2022-09-23T23:51:26.661Z,92.96
2022-09-23T23:53:54.984Z,92.54
2022-09-23T23:56:23.959Z,92.61
2022-09-23T23:58:58.411Z,91.64
